aviador You're here:

PAQH Decoded Metar

in
Report Time2018-07-20 08:56:00
UTC Time2018-07-20 09:03:04
Flight Rules vfr VFR
Wind260° at 06 kt
W.Decomp.*RWY 30: 4.6 kt HW 3.9 kt LCW
W.Rank260° ranks 25
Current wind is below 260° avg. (9.2)
Visibility9999 m
Phenomena:N/A
Clouds:Few 038 Hf
Expected CloudBase > 400 ft AGL from Temp-Dew spread
CeilingNone
Temp12°C
Dew Point11°C (94% RH)
AAT10.2°C
QNH1023 hPa
Raw Report
PAQH 200856Z AUTO 26006KT 10SM FEW038 12/11 A3022 RMK AO2 SLP234
T01170106 401890078 50003=

Extra information for PAQH:More info

Social comments